createdAt,value
2018-06-14T19:38:23.209Z,27.3
2018-06-14T19:39:12.990Z,27.3
2018-06-14T19:40:03.702Z,27.3
2018-06-14T19:40:52.823Z,27.3
2018-06-14T19:41:43.460Z,27.3
2018-06-14T19:42:33.198Z,27.3
2018-06-14T19:43:23.671Z,27.3
2018-06-14T19:44:13.397Z,27.3
2018-06-14T19:45:03.457Z,27.3
2018-06-14T19:45:53.537Z,27.3
2018-06-14T19:46:43.875Z,27.3
2018-06-14T19:47:33.849Z,27.3
2018-06-14T19:48:23.702Z,27.3
2018-06-14T19:49:13.838Z,27.3
2018-06-14T19:50:03.840Z,27.3
2018-06-14T19:50:54.186Z,27.3
2018-06-14T19:51:43.929Z,27.3
2018-06-14T19:52:34.316Z,27.2
2018-06-14T19:53:24.075Z,27.2
2018-06-14T19:54:14.491Z,27.3
2018-06-14T19:55:04.534Z,27.2
2018-06-14T19:55:54.564Z,27.2
2018-06-14T19:56:44.660Z,27.3
2018-06-14T19:57:34.165Z,27.2
2018-06-14T19:58:24.566Z,27.2
2018-06-14T19:59:14.832Z,27.2
2018-06-14T20:00:04.615Z,27.2
2018-06-14T20:00:54.743Z,27.2
2018-06-14T20:01:44.981Z,27.2
2018-06-14T20:02:34.772Z,27.2
2018-06-14T20:03:24.897Z,27.3
2018-06-14T20:04:15.186Z,27.2
2018-06-14T20:05:04.971Z,27.2
2018-06-14T20:05:55.026Z,27.3
2018-06-14T20:06:45.386Z,27.2
2018-06-14T20:07:34.593Z,27.2
2018-06-14T20:08:25.238Z,27.2
2018-06-14T20:09:15.319Z,27.2
2018-06-14T20:10:05.091Z,27.2
2018-06-14T20:10:55.688Z,27.2
2018-06-14T20:11:45.484Z,27.2
2018-06-14T20:12:35.260Z,27.2
2018-06-14T20:13:25.864Z,27.2
2018-06-14T20:14:15.411Z,27.2
2018-06-14T20:15:06.025Z,27.2
2018-06-14T20:15:56.066Z,27.2
2018-06-14T20:16:45.591Z,27.1
2018-06-14T20:17:35.936Z,27.2
2018-06-14T20:18:26.283Z,27.2
2018-06-14T20:19:15.815Z,27.2
2018-06-14T20:20:06.149Z,27.2
2018-06-14T20:20:56.015Z,27.1
2018-06-14T20:21:45.710Z,27.2
2018-06-14T20:22:36.326Z,27.2
2018-06-14T20:23:26.399Z,27.1
2018-06-14T20:24:16.452Z,27.1
2018-06-14T20:25:06.509Z,27.1
2018-06-14T20:25:56.894Z,27.1
2018-06-14T20:26:46.673Z,27.1
2018-06-14T20:27:36.996Z,27.1
2018-06-14T20:28:26.259Z,27.1
2018-06-14T20:29:17.127Z,27.1
2018-06-14T20:30:06.656Z,27.1
2018-06-14T20:30:57.271Z,27.1
2018-06-14T20:31:46.768Z,27.1
2018-06-14T20:32:37.087Z,27.1
2018-06-14T20:33:27.173Z,27.1
2018-06-14T20:34:17.014Z,27.1
2018-06-14T20:35:07.029Z,27.1
2018-06-14T20:35:57.076Z,27.1
2018-06-14T20:36:46.866Z,27.1
2018-06-14T20:37:37.798Z,27.1
2018-06-14T20:38:27.890Z,27.1
2018-06-14T20:39:17.330Z,27.1
2018-06-14T20:40:07.949Z,27.1
2018-06-14T20:40:57.813Z,27.1
2018-06-14T20:41:48.565Z,27.1
2018-06-14T20:42:38.201Z,27.1
2018-06-14T20:43:27.650Z,27.1
2018-06-14T20:44:17.993Z,27.1
2018-06-14T20:45:08.347Z,27.1
2018-06-14T20:45:57.866Z,27.1
2018-06-14T20:46:47.533Z,27.1
2018-06-14T20:47:38.574Z,27.1
2018-06-14T20:48:28.066Z,27.1
2018-06-14T20:49:18.415Z,27.1
2018-06-14T20:50:08.230Z,27.1
2018-06-14T20:50:58.823Z,27.1
2018-06-14T20:51:48.555Z,27.1
2018-06-14T20:52:38.978Z,27.1
2018-06-14T20:53:29.014Z,27.1
2018-06-14T20:54:19.067Z,27.1
2018-06-14T20:55:08.890Z,27
2018-06-14T20:55:58.468Z,27.1
2018-06-14T20:56:48.780Z,27
2018-06-14T20:57:38.812Z,27
2018-06-14T20:58:29.420Z,27
2018-06-14T20:59:19.458Z,27
2018-06-14T21:00:09.515Z,27
2018-06-14T21:00:59.592Z,27
2018-06-14T21:01:49.085Z,27
2018-06-14T21:02:39.434Z,27
2018-06-14T21:03:29.299Z,27
2018-06-14T21:04:19.355Z,27
2018-06-14T21:05:10.094Z,27
2018-06-14T21:05:59.966Z,27
2018-06-14T21:06:49.457Z,27
2018-06-14T21:07:39.556Z,27
2018-06-14T21:08:30.239Z,27
2018-06-14T21:09:19.981Z,27
2018-06-14T21:10:10.061Z,27
2018-06-14T21:11:00.111Z,27
2018-06-14T21:11:50.441Z,26.9
2018-06-14T21:12:40.520Z,26.9
2018-06-14T21:13:30.576Z,26.9
2018-06-14T21:14:20.637Z,26.9
2018-06-14T21:15:10.216Z,26.9
2018-06-14T21:15:59.705Z,26.9
2018-06-14T21:16:50.059Z,26.9
2018-06-14T21:17:40.393Z,26.9
2018-06-14T21:18:30.158Z,26.9
2018-06-14T21:19:21.009Z,26.9
2018-06-14T21:20:10.523Z,26.9
2018-06-14T21:21:01.351Z,26.9
2018-06-14T21:21:51.183Z,26.9
2018-06-14T21:22:41.249Z,26.9
2018-06-14T21:23:31.325Z,26.9
2018-06-14T21:24:21.413Z,26.9
2018-06-14T21:25:10.601Z,26.9
2018-06-14T21:26:01.514Z,26.9
2018-06-14T21:26:51.595Z,26.9
2018-06-14T21:27:41.404Z,26.9
2018-06-14T21:28:31.463Z,26.9
2018-06-14T21:29:21.524Z,26.9
2018-06-14T21:30:11.573Z,26.9
2018-06-14T21:31:01.911Z,26.9
2018-06-14T21:31:51.744Z,26.9
2018-06-14T21:32:41.494Z,26.9
2018-06-14T21:33:32.095Z,26.9
2018-06-14T21:34:22.159Z,26.9
2018-06-14T21:35:11.959Z,26.9
2018-06-14T21:36:02.316Z,26.9
2018-06-14T21:36:52.106Z,26.9
2018-06-14T21:37:42.421Z,26.9
2018-06-14T21:38:32.501Z,26.9
2018-06-14T21:39:22.004Z,26.9
2018-06-14T21:40:12.646Z,26.9
2018-06-14T21:41:02.697Z,26.9
2018-06-14T21:41:52.764Z,26.9
2018-06-14T21:42:41.779Z,26.9
2018-06-14T21:43:32.916Z,26.9
2018-06-14T21:44:22.147Z,26.9
2018-06-14T21:45:13.060Z,26.9
2018-06-14T21:46:03.074Z,26.9
2018-06-14T21:46:52.402Z,26.9
2018-06-14T21:47:42.736Z,26.9
2018-06-14T21:48:32.972Z,26.8
2018-06-14T21:49:23.325Z,26.8
2018-06-14T21:50:13.409Z,26.8
2018-06-14T21:51:02.940Z,26.8
2018-06-14T21:51:52.695Z,26.9
2018-06-14T21:52:43.059Z,26.8
2018-06-14T21:53:33.664Z,26.9
2018-06-14T21:54:23.727Z,26.8
2018-06-14T21:55:13.780Z,26.8
2018-06-14T21:56:03.292Z,26.8
2018-06-14T21:56:53.683Z,26.8
2018-06-14T21:57:43.722Z,26.8
2018-06-14T21:58:34.069Z,26.8
2018-06-14T21:59:24.150Z,26.9
2018-06-14T22:00:14.209Z,26.8
2018-06-14T22:01:04.249Z,26.8
2018-06-14T22:01:54.310Z,26.8
2018-06-14T22:02:44.111Z,26.8
2018-06-14T22:03:34.541Z,26.8
2018-06-14T22:04:24.262Z,26.8
2018-06-14T22:05:14.296Z,26.8
2018-06-14T22:06:04.416Z,26.8
2018-06-14T22:06:54.414Z,26.8
2018-06-14T22:07:44.791Z,26.8
2018-06-14T22:08:34.812Z,26.8
2018-06-14T22:09:24.650Z,26.8
2018-06-14T22:10:14.962Z,26.8
2018-06-14T22:11:04.738Z,26.8
2018-06-14T22:11:55.121Z,26.8
2018-06-14T22:12:45.138Z,26.8
2018-06-14T22:13:35.214Z,26.8
2018-06-14T22:14:25.018Z,26.8
2018-06-14T22:15:15.366Z,26.8
2018-06-14T22:16:05.004Z,26.8
2018-06-14T22:16:54.167Z,26.8
2018-06-14T22:17:44.797Z,26.8
2018-06-14T22:18:35.127Z,26.8
2018-06-14T22:19:25.195Z,26.8
2018-06-14T22:20:15.020Z,26.8
2018-06-14T22:21:05.349Z,26.8
2018-06-14T22:21:55.159Z,26.8
2018-06-14T22:22:44.714Z,26.8
2018-06-14T22:23:35.507Z,26.8
2018-06-14T22:24:25.568Z,26.8
2018-06-14T22:25:15.881Z,26.8
2018-06-14T22:26:06.177Z,26.8
2018-06-14T22:26:55.981Z,26.8
2018-06-14T22:27:46.307Z,26.8
2018-06-14T22:28:36.412Z,26.8
2018-06-14T22:29:26.493Z,26.8
2018-06-14T22:30:16.242Z,26.8
2018-06-14T22:31:06.611Z,26.8
2018-06-14T22:31:56.657Z,26.8
2018-06-14T22:32:46.737Z,26.8
2018-06-14T22:33:36.784Z,26.8
2018-06-14T22:34:26.858Z,26.8
2018-06-14T22:35:16.948Z,26.8
2018-06-14T22:36:07.004Z,26.8
2018-06-14T22:36:56.212Z,26.7
2018-06-14T22:37:47.084Z,26.7
2018-06-14T22:38:36.590Z,26.8
2018-06-14T22:39:27.219Z,26.7
2018-06-14T22:40:16.464Z,26.8
2018-06-14T22:41:06.805Z,26.7
2018-06-14T22:41:57.208Z,26.8
2018-06-14T22:42:46.662Z,26.7
2018-06-14T22:43:36.996Z,26.7
2018-06-14T22:44:27.157Z,26.7
2018-06-14T22:45:17.129Z,26.7
2018-06-14T22:46:07.755Z,26.8
2018-06-14T22:46:57.798Z,26.7
2018-06-14T22:47:47.874Z,26.7
2018-06-14T22:48:37.385Z,26.7
2018-06-14T22:49:28.014Z,26.7
2018-06-14T22:50:18.113Z,26.7
2018-06-14T22:51:08.154Z,26.7
2018-06-14T22:51:57.969Z,26.7
2018-06-14T22:52:48.294Z,26.7
2018-06-14T22:53:37.544Z,26.7
2018-06-14T22:54:28.411Z,26.7
2018-06-14T22:55:17.970Z,26.7
2018-06-14T22:56:08.554Z,26.7
2018-06-14T22:56:58.046Z,26.7
2018-06-14T22:57:48.666Z,26.7
2018-06-14T22:58:38.710Z,26.6
2018-06-14T22:59:28.762Z,26.7
2018-06-14T23:00:18.855Z,26.7
2018-06-14T23:01:08.613Z,26.7
2018-06-14T23:01:58.703Z,26.6
2018-06-14T23:02:49.037Z,26.7
2018-06-14T23:03:38.831Z,26.6
2018-06-14T23:04:28.623Z,26.6
2018-06-14T23:05:18.657Z,26.6
2018-06-14T23:06:09.138Z,26.7
2018-06-14T23:06:59.354Z,26.6
2018-06-14T23:07:48.849Z,26.6
2018-06-14T23:08:39.215Z,26.6
2018-06-14T23:09:29.560Z,26.7
2018-06-14T23:10:19.351Z,26.6
2018-06-14T23:11:09.886Z,26.7
2018-06-14T23:11:59.484Z,26.6
2018-06-14T23:12:49.266Z,26.6
2018-06-14T23:13:39.646Z,26.6
2018-06-14T23:14:29.109Z,26.6
2018-06-14T23:15:20.048Z,26.6
2018-06-14T23:16:09.509Z,26.6
2018-06-14T23:16:59.873Z,26.6
2018-06-14T23:17:49.650Z,26.6
2018-06-14T23:18:39.979Z,26.6
2018-06-14T23:19:30.384Z,26.6
2018-06-14T23:20:20.118Z,26.6
2018-06-14T23:21:10.465Z,26.6
2018-06-14T23:22:00.275Z,26.6
2018-06-14T23:22:50.372Z,26.6
2018-06-14T23:23:40.381Z,26.6
2018-06-14T23:24:30.742Z,26.6
2018-06-14T23:25:20.229Z,26.6
2018-06-14T23:26:10.030Z,26.6
2018-06-14T23:27:00.115Z,26.6
2018-06-14T23:27:50.707Z,26.6
2018-06-14T23:28:41.079Z,26.6
2018-06-14T23:29:30.838Z,26.6
2018-06-14T23:30:20.898Z,26.6
2018-06-14T23:31:11.241Z,26.6
2018-06-14T23:32:01.331Z,26.6
2018-06-14T23:32:50.885Z,26.6
2018-06-14T23:33:41.187Z,26.6
2018-06-14T23:34:31.496Z,26.6
2018-06-14T23:35:21.272Z,26.6
2018-06-14T23:36:11.635Z,26.6
2018-06-14T23:37:01.693Z,26.6
2018-06-14T23:37:50.922Z,26.6
2018-06-14T23:38:41.569Z,26.6
2018-06-14T23:39:31.618Z,26.6
2018-06-14T23:40:21.938Z,26.6
2018-06-14T23:41:11.174Z,26.6
2018-06-14T23:42:01.257Z,26.6
2018-06-14T23:42:51.880Z,26.6
2018-06-14T23:43:41.659Z,26.6
2018-06-14T23:44:32.288Z,26.6
2018-06-14T23:45:22.061Z,26.6
2018-06-14T23:46:12.143Z,26.6
2018-06-14T23:47:02.482Z,26.6
2018-06-14T23:47:52.259Z,26.6
2018-06-14T23:48:42.581Z,26.6
2018-06-14T23:49:32.706Z,26.6
2018-06-14T23:50:22.756Z,26.6
2018-06-14T23:51:12.804Z,26.6
2018-06-14T23:52:02.869Z,26.6
2018-06-14T23:52:52.644Z,26.6
2018-06-14T23:53:42.429Z,26.6
2018-06-14T23:54:33.047Z,26.6
2018-06-14T23:55:22.603Z,26.6
2018-06-14T23:56:13.187Z,26.6
2018-06-14T23:57:02.935Z,26.6
2018-06-14T23:57:53.048Z,26.6
2018-06-14T23:58:43.420Z,26.6
2018-06-14T23:59:33.159Z,26.5
